CheckWX is a tool to help pilots better visualize weather data.  It is not intended as a substitute for an official pre-flight weather briefing.

12:56:44 UTC

KPIR METAR
Pierre Regional Airport
Pierre, South Dakota, USA
Current

1 hour ago

KPIR 181153Z AUTO 31008KT 10SM CLR M19/M21 A3040 RMK AO2 SLP337 60000 T11891206 11139 21189 53006 $
Observed
Feb-18 @ 11:53 UTC
Wind
  • 310° at 8 KTS
Visibility
10 SM
Flight Rules
VFR
Cloud Levels
  • Clear skies
Temperature
-19°C / -2°F
Dewpoint
-21°C / -6°F
Humidity
84%
Altimeter
30.4" Hg
Pressure
1033.7 hPa
Previous

2 hours ago

KPIR 181053Z AUTO 32009KT 10SM CLR M18/M20 A3039 RMK AO2 SLP332 T11831200 $
Observed
Feb-18 @ 10:53 UTC
Wind
  • 320° at 9 KTS
Visibility
10 SM
Flight Rules
VFR
Cloud Levels
  • Clear skies
Temperature
-18°C / -0°F
Dewpoint
-20°C / -4°F
Humidity
84%
Altimeter
30.39" Hg
Pressure
1033.2 hPa
Previous

3 hours ago

KPIR 180953Z AUTO 31011KT 10SM CLR M18/M19 A3039 RMK AO2 SLP330 T11781194 $
Observed
Feb-18 @ 09:53 UTC
Wind
  • 310° at 11 KTS
Visibility
10 SM
Flight Rules
VFR
Cloud Levels
  • Clear skies
Temperature
-18°C / -0°F
Dewpoint
-19°C / -2°F
Humidity
92%
Altimeter
30.39" Hg
Pressure
1033 hPa